sensor_id;sensor_type;location;lat;lon;timestamp;temperature;humidity
3478;DHT22;37937;61.490;23.506;2023-08-31T00:01:11;16.40;99.90
3478;DHT22;37937;61.490;23.506;2023-08-31T00:03:36;16.40;99.90
3478;DHT22;37937;61.490;23.506;2023-08-31T00:06:02;16.30;99.90
3478;DHT22;37937;61.490;23.506;2023-08-31T00:08:33;16.40;99.90
3478;DHT22;37937;61.490;23.506;2023-08-31T00:10:59;16.40;99.90
3478;DHT22;37937;61.490;23.506;2023-08-31T00:13:28;16.40;99.90
3478;DHT22;37937;61.490;23.506;2023-08-31T00:15:57;16.40;99.90
3478;DHT22;37937;61.490;23.506;2023-08-31T00:18:23;16.30;99.90
3478;DHT22;37937;61.490;23.506;2023-08-31T00:20:50;16.40;99.90
3478;DHT22;37937;61.490;23.506;2023-08-31T00:23:15;16.40;99.90
3478;DHT22;37937;61.490;23.506;2023-08-31T00:25:41;16.40;99.90
3478;DHT22;37937;61.490;23.506;2023-08-31T00:28:09;16.40;99.90
3478;DHT22;37937;61.490;23.506;2023-08-31T00:30:34;16.40;99.90
3478;DHT22;37937;61.490;23.506;2023-08-31T00:33:00;16.40;99.90
3478;DHT22;37937;61.490;23.506;2023-08-31T00:35:26;16.40;99.90
3478;DHT22;37937;61.490;23.506;2023-08-31T00:37:55;16.40;99.90
3478;DHT22;37937;61.490;23.506;2023-08-31T00:40:27;16.40;99.90
3478;DHT22;37937;61.490;23.506;2023-08-31T00:42:56;16.40;99.90
3478;DHT22;37937;61.490;23.506;2023-08-31T00:45:22;16.40;99.90
3478;DHT22;37937;61.490;23.506;2023-08-31T00:47:48;16.40;99.90
3478;DHT22;37937;61.490;23.506;2023-08-31T00:50:14;16.40;99.90
3478;DHT22;37937;61.490;23.506;2023-08-31T00:52:43;16.50;99.90
3478;DHT22;37937;61.490;23.506;2023-08-31T00:55:10;16.40;99.90
3478;DHT22;37937;61.490;23.506;2023-08-31T00:57:35;16.50;99.90
3478;DHT22;37937;61.490;23.506;2023-08-31T01:00:01;16.50;99.90
3478;DHT22;37937;61.490;23.506;2023-08-31T01:02:50;16.50;99.90
3478;DHT22;37937;61.490;23.506;2023-08-31T01:10:11;16.60;99.90
3478;DHT22;37937;61.490;23.506;2023-08-31T01:13:25;16.60;99.90
3478;DHT22;37937;61.490;23.506;2023-08-31T01:15:26;16.50;99.90
3478;DHT22;37937;61.490;23.506;2023-08-31T01:17:56;16.60;99.90
3478;DHT22;37937;61.490;23.506;2023-08-31T01:20:31;16.60;99.90
3478;DHT22;37937;61.490;23.506;2023-08-31T01:23:00;16.60;99.90
3478;DHT22;37937;61.490;23.506;2023-08-31T01:25:29;16.50;99.90
3478;DHT22;37937;61.490;23.506;2023-08-31T01:27:56;16.60;99.90
3478;DHT22;37937;61.490;23.506;2023-08-31T01:30:22;16.70;99.90
3478;DHT22;37937;61.490;23.506;2023-08-31T01:32:47;16.70;99.90
3478;DHT22;37937;61.490;23.506;2023-08-31T01:35:14;16.70;99.90
3478;DHT22;37937;61.490;23.506;2023-08-31T01:37:44;16.60;99.90
3478;DHT22;37937;61.490;23.506;2023-08-31T01:40:20;16.70;99.90
3478;DHT22;37937;61.490;23.506;2023-08-31T01:42:48;16.70;99.90
3478;DHT22;37937;61.490;23.506;2023-08-31T01:45:15;16.70;99.90
3478;DHT22;37937;61.490;23.506;2023-08-31T01:47:42;16.70;99.90
3478;DHT22;37937;61.490;23.506;2023-08-31T01:50:08;16.70;99.90
3478;DHT22;37937;61.490;23.506;2023-08-31T01:52:34;16.70;99.90
3478;DHT22;37937;61.490;23.506;2023-08-31T01:54:59;16.70;99.90
3478;DHT22;37937;61.490;23.506;2023-08-31T01:57:25;16.70;99.90
3478;DHT22;37937;61.490;23.506;2023-08-31T01:59:51;16.70;99.90
3478;DHT22;37937;61.490;23.506;2023-08-31T02:02:16;16.60;99.90
3478;DHT22;37937;61.490;23.506;2023-08-31T02:04:43;16.70;99.90
3478;DHT22;37937;61.490;23.506;2023-08-31T02:07:08;16.70;99.90
3478;DHT22;37937;61.490;23.506;2023-08-31T02:09:34;16.70;99.90
3478;DHT22;37937;61.490;23.506;2023-08-31T02:11:59;16.70;99.90
3478;DHT22;37937;61.490;23.506;2023-08-31T02:14:25;16.70;99.90
3478;DHT22;37937;61.490;23.506;2023-08-31T02:16:51;16.70;99.90
3478;DHT22;37937;61.490;23.506;2023-08-31T02:19:16;16.70;99.90
3478;DHT22;37937;61.490;23.506;2023-08-31T02:21:42;16.70;99.90
3478;DHT22;37937;61.490;23.506;2023-08-31T02:24:07;16.70;99.90
3478;DHT22;37937;61.490;23.506;2023-08-31T02:26:35;16.70;99.90
3478;DHT22;37937;61.490;23.506;2023-08-31T02:29:00;16.70;99.90
3478;DHT22;37937;61.490;23.506;2023-08-31T02:31:26;16.70;99.90
3478;DHT22;37937;61.490;23.506;2023-08-31T02:33:51;16.70;99.90
3478;DHT22;37937;61.490;23.506;2023-08-31T02:36:18;16.70;99.90
3478;DHT22;37937;61.490;23.506;2023-08-31T02:38:45;16.80;99.90
3478;DHT22;37937;61.490;23.506;2023-08-31T02:41:11;16.80;99.90
3478;DHT22;37937;61.490;23.506;2023-08-31T02:43:38;16.80;99.90
3478;DHT22;37937;61.490;23.506;2023-08-31T02:46:04;16.80;99.90
3478;DHT22;37937;61.490;23.506;2023-08-31T02:48:31;16.80;99.90
3478;DHT22;37937;61.490;23.506;2023-08-31T02:50:57;16.80;99.90
3478;DHT22;37937;61.490;23.506;2023-08-31T02:53:29;16.90;99.90
3478;DHT22;37937;61.490;23.506;2023-08-31T02:55:55;16.80;99.90
3478;DHT22;37937;61.490;23.506;2023-08-31T02:58:21;16.80;99.90
3478;DHT22;37937;61.490;23.506;2023-08-31T03:00:46;16.80;99.90
3478;DHT22;37937;61.490;23.506;2023-08-31T03:03:14;16.80;99.90
3478;DHT22;37937;61.490;23.506;2023-08-31T03:05:39;16.80;99.90
3478;DHT22;37937;61.490;23.506;2023-08-31T03:08:05;16.80;99.90
3478;DHT22;37937;61.490;23.506;2023-08-31T03:10:31;16.80;99.90
3478;DHT22;37937;61.490;23.506;2023-08-31T03:12:56;16.80;99.90
3478;DHT22;37937;61.490;23.506;2023-08-31T03:15:22;16.80;99.90
3478;DHT22;37937;61.490;23.506;2023-08-31T03:17:48;16.90;99.90
3478;DHT22;37937;61.490;23.506;2023-08-31T03:20:14;16.80;99.90
3478;DHT22;37937;61.490;23.506;2023-08-31T03:22:39;16.80;99.90
3478;DHT22;37937;61.490;23.506;2023-08-31T03:25:05;16.80;99.90
3478;DHT22;37937;61.490;23.506;2023-08-31T03:27:31;16.80;99.90
3478;DHT22;37937;61.490;23.506;2023-08-31T03:29:56;16.80;99.90
3478;DHT22;37937;61.490;23.506;2023-08-31T03:32:22;16.80;99.90
3478;DHT22;37937;61.490;23.506;2023-08-31T03:34:48;16.80;99.90
3478;DHT22;37937;61.490;23.506;2023-08-31T03:37:13;16.80;99.90
3478;DHT22;37937;61.490;23.506;2023-08-31T03:39:39;16.80;99.90
3478;DHT22;37937;61.490;23.506;2023-08-31T03:42:06;16.80;99.90
3478;DHT22;37937;61.490;23.506;2023-08-31T03:44:32;16.80;99.90
3478;DHT22;37937;61.490;23.506;2023-08-31T03:46:57;16.90;99.90
3478;DHT22;37937;61.490;23.506;2023-08-31T03:49:23;16.80;99.90
3478;DHT22;37937;61.490;23.506;2023-08-31T03:51:49;16.80;99.90
3478;DHT22;37937;61.490;23.506;2023-08-31T03:54:14;16.80;99.90
3478;DHT22;37937;61.490;23.506;2023-08-31T03:56:40;16.90;99.90
3478;DHT22;37937;61.490;23.506;2023-08-31T03:59:06;16.90;99.90
3478;DHT22;37937;61.490;23.506;2023-08-31T04:01:31;16.90;99.90
3478;DHT22;37937;61.490;23.506;2023-08-31T04:03:57;16.90;99.90
3478;DHT22;37937;61.490;23.506;2023-08-31T04:06:22;16.80;99.90
3478;DHT22;37937;61.490;23.506;2023-08-31T04:08:50;16.80;99.90
3478;DHT22;37937;61.490;23.506;2023-08-31T04:11:16;16.80;99.90
3478;DHT22;37937;61.490;23.506;2023-08-31T04:13:42;16.80;99.90
3478;DHT22;37937;61.490;23.506;2023-08-31T04:16:07;16.90;99.90
3478;DHT22;37937;61.490;23.506;2023-08-31T04:18:33;16.90;99.90
3478;DHT22;37937;61.490;23.506;2023-08-31T04:20:58;16.90;99.90
3478;DHT22;37937;61.490;23.506;2023-08-31T04:23:25;16.90;99.90
3478;DHT22;37937;61.490;23.506;2023-08-31T04:25:51;16.80;99.90
3478;DHT22;37937;61.490;23.506;2023-08-31T04:28:18;16.80;99.90
3478;DHT22;37937;61.490;23.506;2023-08-31T04:30:44;16.90;99.90
3478;DHT22;37937;61.490;23.506;2023-08-31T04:33:10;16.90;99.90
3478;DHT22;37937;61.490;23.506;2023-08-31T04:35:35;16.90;99.90
3478;DHT22;37937;61.490;23.506;2023-08-31T04:38:01;16.90;99.90
3478;DHT22;37937;61.490;23.506;2023-08-31T04:40:27;16.90;99.90
3478;DHT22;37937;61.490;23.506;2023-08-31T04:42:53;16.90;99.90
3478;DHT22;37937;61.490;23.506;2023-08-31T04:45:19;16.90;99.90
3478;DHT22;37937;61.490;23.506;2023-08-31T04:47:44;16.90;99.90
3478;DHT22;37937;61.490;23.506;2023-08-31T04:50:10;17.00;99.90
3478;DHT22;37937;61.490;23.506;2023-08-31T04:52:36;16.90;99.90
3478;DHT22;37937;61.490;23.506;2023-08-31T04:55:01;16.90;99.90
3478;DHT22;37937;61.490;23.506;2023-08-31T04:57:29;16.90;99.90
3478;DHT22;37937;61.490;23.506;2023-08-31T04:59:54;16.90;99.90
3478;DHT22;37937;61.490;23.506;2023-08-31T05:02:20;16.90;99.90
3478;DHT22;37937;61.490;23.506;2023-08-31T05:04:45;16.90;99.90
3478;DHT22;37937;61.490;23.506;2023-08-31T05:07:11;16.90;99.90
3478;DHT22;37937;61.490;23.506;2023-08-31T05:09:37;16.90;99.90
3478;DHT22;37937;61.490;23.506;2023-08-31T05:12:02;17.00;99.90
3478;DHT22;37937;61.490;23.506;2023-08-31T05:14:28;16.90;99.90
3478;DHT22;37937;61.490;23.506;2023-08-31T05:16:54;16.90;99.90
3478;DHT22;37937;61.490;23.506;2023-08-31T05:19:20;17.00;99.90
3478;DHT22;37937;61.490;23.506;2023-08-31T05:21:45;17.00;99.90
3478;DHT22;37937;61.490;23.506;2023-08-31T05:24:11;17.00;99.90
3478;DHT22;37937;61.490;23.506;2023-08-31T05:26:37;17.10;99.90
3478;DHT22;37937;61.490;23.506;2023-08-31T05:29:02;17.00;99.90
3478;DHT22;37937;61.490;23.506;2023-08-31T05:31:31;17.00;99.90
3478;DHT22;37937;61.490;23.506;2023-08-31T05:33:57;17.00;99.90
3478;DHT22;37937;61.490;23.506;2023-08-31T05:36:22;17.00;99.90
3478;DHT22;37937;61.490;23.506;2023-08-31T05:38:48;17.00;99.90
3478;DHT22;37937;61.490;23.506;2023-08-31T05:41:15;17.00;99.90
3478;DHT22;37937;61.490;23.506;2023-08-31T05:43:41;17.00;99.90
3478;DHT22;37937;61.490;23.506;2023-08-31T05:46:07;17.10;99.90
3478;DHT22;37937;61.490;23.506;2023-08-31T05:48:34;17.10;99.90
3478;DHT22;37937;61.490;23.506;2023-08-31T05:50:59;17.20;99.90
3478;DHT22;37937;61.490;23.506;2023-08-31T05:53:25;17.10;99.90
3478;DHT22;37937;61.490;23.506;2023-08-31T05:55:51;17.20;99.90
3478;DHT22;37937;61.490;23.506;2023-08-31T05:58:16;17.10;99.90
3478;DHT22;37937;61.490;23.506;2023-08-31T06:00:42;17.20;99.90
3478;DHT22;37937;61.490;23.506;2023-08-31T06:03:07;17.10;99.90
3478;DHT22;37937;61.490;23.506;2023-08-31T06:05:34;17.10;99.90
3478;DHT22;37937;61.490;23.506;2023-08-31T06:08:00;17.20;99.90
3478;DHT22;37937;61.490;23.506;2023-08-31T06:10:26;17.10;99.90
3478;DHT22;37937;61.490;23.506;2023-08-31T06:12:51;17.10;99.90
3478;DHT22;37937;61.490;23.506;2023-08-31T06:15:17;17.10;99.90
3478;DHT22;37937;61.490;23.506;2023-08-31T06:17:43;17.20;99.90
3478;DHT22;37937;61.490;23.506;2023-08-31T06:20:09;17.30;99.90
3478;DHT22;37937;61.490;23.506;2023-08-31T06:22:35;17.20;99.90
3478;DHT22;37937;61.490;23.506;2023-08-31T06:25:01;17.20;99.90
3478;DHT22;37937;61.490;23.506;2023-08-31T06:27:28;17.30;99.90
3478;DHT22;37937;61.490;23.506;2023-08-31T06:29:53;17.20;99.90
3478;DHT22;37937;61.490;23.506;2023-08-31T06:32:19;17.30;99.90
3478;DHT22;37937;61.490;23.506;2023-08-31T06:34:45;17.30;99.90
3478;DHT22;37937;61.490;23.506;2023-08-31T06:37:10;17.30;99.90
3478;DHT22;37937;61.490;23.506;2023-08-31T06:39:36;17.40;99.90
3478;DHT22;37937;61.490;23.506;2023-08-31T06:42:02;17.40;99.90
3478;DHT22;37937;61.490;23.506;2023-08-31T06:44:28;17.40;99.90
3478;DHT22;37937;61.490;23.506;2023-08-31T06:46:55;17.40;99.90
3478;DHT22;37937;61.490;23.506;2023-08-31T06:49:21;17.40;99.90
3478;DHT22;37937;61.490;23.506;2023-08-31T06:51:47;17.40;99.90
3478;DHT22;37937;61.490;23.506;2023-08-31T06:54:13;17.40;99.90
3478;DHT22;37937;61.490;23.506;2023-08-31T06:56:38;17.50;99.90
3478;DHT22;37937;61.490;23.506;2023-08-31T06:59:04;17.50;99.90
3478;DHT22;37937;61.490;23.506;2023-08-31T07:01:29;17.50;99.90
3478;DHT22;37937;61.490;23.506;2023-08-31T07:03:55;17.60;99.90
3478;DHT22;37937;61.490;23.506;2023-08-31T07:06:21;17.60;99.90
3478;DHT22;37937;61.490;23.506;2023-08-31T07:08:47;17.60;99.90
3478;DHT22;37937;61.490;23.506;2023-08-31T07:11:13;17.60;99.90
3478;DHT22;37937;61.490;23.506;2023-08-31T07:13:39;17.70;99.90
3478;DHT22;37937;61.490;23.506;2023-08-31T07:16:05;17.70;99.90
3478;DHT22;37937;61.490;23.506;2023-08-31T07:18:31;17.70;99.90
3478;DHT22;37937;61.490;23.506;2023-08-31T07:20:56;17.70;99.90
3478;DHT22;37937;61.490;23.506;2023-08-31T07:23:23;17.70;99.90
3478;DHT22;37937;61.490;23.506;2023-08-31T07:25:48;17.90;99.90
3478;DHT22;37937;61.490;23.506;2023-08-31T07:28:14;17.90;99.90
3478;DHT22;37937;61.490;23.506;2023-08-31T07:30:40;17.90;99.90
3478;DHT22;37937;61.490;23.506;2023-08-31T07:33:05;18.00;99.90
3478;DHT22;37937;61.490;23.506;2023-08-31T07:35:32;18.00;99.90
3478;DHT22;37937;61.490;23.506;2023-08-31T07:37:57;18.00;99.90
3478;DHT22;37937;61.490;23.506;2023-08-31T07:40:23;18.00;99.90
3478;DHT22;37937;61.490;23.506;2023-08-31T07:42:49;17.90;99.90
3478;DHT22;37937;61.490;23.506;2023-08-31T07:45:16;17.90;99.90
3478;DHT22;37937;61.490;23.506;2023-08-31T07:47:42;17.90;99.90
3478;DHT22;37937;61.490;23.506;2023-08-31T07:50:08;18.00;99.90
3478;DHT22;37937;61.490;23.506;2023-08-31T07:52:33;18.10;99.90
3478;DHT22;37937;61.490;23.506;2023-08-31T07:54:59;18.00;99.90
3478;DHT22;37937;61.490;23.506;2023-08-31T07:57:25;18.10;99.90
3478;DHT22;37937;61.490;23.506;2023-08-31T07:59:51;18.10;99.90
3478;DHT22;37937;61.490;23.506;2023-08-31T08:02:16;18.00;99.90
3478;DHT22;37937;61.490;23.506;2023-08-31T08:04:42;18.10;99.90
3478;DHT22;37937;61.490;23.506;2023-08-31T08:07:08;18.20;99.90
3478;DHT22;37937;61.490;23.506;2023-08-31T08:09:34;18.20;99.90
3478;DHT22;37937;61.490;23.506;2023-08-31T08:12:00;18.30;99.90
3478;DHT22;37937;61.490;23.506;2023-08-31T08:14:26;18.40;99.90
3478;DHT22;37937;61.490;23.506;2023-08-31T08:16:51;18.40;99.90
3478;DHT22;37937;61.490;23.506;2023-08-31T08:19:21;18.40;99.90
3478;DHT22;37937;61.490;23.506;2023-08-31T08:21:47;18.50;99.90
3478;DHT22;37937;61.490;23.506;2023-08-31T08:24:13;18.40;99.90
3478;DHT22;37937;61.490;23.506;2023-08-31T08:26:38;18.40;99.90
3478;DHT22;37937;61.490;23.506;2023-08-31T08:29:04;18.40;99.90
3478;DHT22;37937;61.490;23.506;2023-08-31T08:31:30;18.50;99.90
3478;DHT22;37937;61.490;23.506;2023-08-31T08:33:55;18.40;99.90
3478;DHT22;37937;61.490;23.506;2023-08-31T08:36:21;18.50;99.90
3478;DHT22;37937;61.490;23.506;2023-08-31T08:38:46;18.50;99.90
3478;DHT22;37937;61.490;23.506;2023-08-31T08:41:12;18.50;99.90
3478;DHT22;37937;61.490;23.506;2023-08-31T08:43:39;18.60;99.90
3478;DHT22;37937;61.490;23.506;2023-08-31T08:46:07;18.50;99.90
3478;DHT22;37937;61.490;23.506;2023-08-31T08:48:34;18.60;99.90
3478;DHT22;37937;61.490;23.506;2023-08-31T08:51:01;18.60;99.90
3478;DHT22;37937;61.490;23.506;2023-08-31T08:53:27;18.60;99.90
3478;DHT22;37937;61.490;23.506;2023-08-31T08:55:53;18.70;99.90
3478;DHT22;37937;61.490;23.506;2023-08-31T08:58:19;18.70;99.90
3478;DHT22;37937;61.490;23.506;2023-08-31T09:00:44;18.70;99.90
3478;DHT22;37937;61.490;23.506;2023-08-31T09:03:11;18.80;99.90
3478;DHT22;37937;61.490;23.506;2023-08-31T09:05:37;18.90;99.90
3478;DHT22;37937;61.490;23.506;2023-08-31T09:08:09;19.00;99.90
3478;DHT22;37937;61.490;23.506;2023-08-31T09:10:39;18.90;99.90
3478;DHT22;37937;61.490;23.506;2023-08-31T09:13:06;18.90;99.90
3478;DHT22;37937;61.490;23.506;2023-08-31T09:15:37;18.90;99.90
3478;DHT22;37937;61.490;23.506;2023-08-31T09:18:04;19.00;99.90
3478;DHT22;37937;61.490;23.506;2023-08-31T09:20:29;18.90;99.90
3478;DHT22;37937;61.490;23.506;2023-08-31T09:22:55;19.00;99.90
3478;DHT22;37937;61.490;23.506;2023-08-31T09:25:21;19.10;99.90
3478;DHT22;37937;61.490;23.506;2023-08-31T09:27:47;19.10;99.90
3478;DHT22;37937;61.490;23.506;2023-08-31T09:30:13;19.10;99.90
3478;DHT22;37937;61.490;23.506;2023-08-31T09:32:39;19.20;99.90
3478;DHT22;37937;61.490;23.506;2023-08-31T09:35:10;19.10;99.90
3478;DHT22;37937;61.490;23.506;2023-08-31T09:37:36;19.20;99.90
3478;DHT22;37937;61.490;23.506;2023-08-31T09:40:04;19.20;99.90
3478;DHT22;37937;61.490;23.506;2023-08-31T09:42:36;19.10;99.90
3478;DHT22;37937;61.490;23.506;2023-08-31T09:45:05;19.20;99.90
3478;DHT22;37937;61.490;23.506;2023-08-31T09:47:31;19.20;99.90
3478;DHT22;37937;61.490;23.506;2023-08-31T09:49:57;19.20;99.90
3478;DHT22;37937;61.490;23.506;2023-08-31T09:52:24;19.20;99.90
3478;DHT22;37937;61.490;23.506;2023-08-31T09:54:49;19.10;99.90
3478;DHT22;37937;61.490;23.506;2023-08-31T09:57:15;19.10;99.90
3478;DHT22;37937;61.490;23.506;2023-08-31T09:59:42;19.20;99.90
3478;DHT22;37937;61.490;23.506;2023-08-31T10:02:08;19.20;99.90
3478;DHT22;37937;61.490;23.506;2023-08-31T10:04:35;19.20;99.90
3478;DHT22;37937;61.490;23.506;2023-08-31T10:07:02;19.10;99.90
3478;DHT22;37937;61.490;23.506;2023-08-31T10:09:28;19.20;99.90
3478;DHT22;37937;61.490;23.506;2023-08-31T10:11:55;19.10;99.90
3478;DHT22;37937;61.490;23.506;2023-08-31T10:14:22;19.20;99.90
3478;DHT22;37937;61.490;23.506;2023-08-31T10:16:47;19.20;99.90
3478;DHT22;37937;61.490;23.506;2023-08-31T10:19:13;19.20;99.90
3478;DHT22;37937;61.490;23.506;2023-08-31T10:21:40;19.30;99.90
3478;DHT22;37937;61.490;23.506;2023-08-31T10:24:06;19.30;99.90
3478;DHT22;37937;61.490;23.506;2023-08-31T10:26:32;19.30;99.90
3478;DHT22;37937;61.490;23.506;2023-08-31T10:28:59;19.30;99.90
3478;DHT22;37937;61.490;23.506;2023-08-31T10:31:28;19.40;99.90
3478;DHT22;37937;61.490;23.506;2023-08-31T10:33:58;19.40;99.90
3478;DHT22;37937;61.490;23.506;2023-08-31T10:36:40;19.50;99.90
3478;DHT22;37937;61.490;23.506;2023-08-31T10:39:16;19.30;99.90
3478;DHT22;37937;61.490;23.506;2023-08-31T10:41:42;19.30;99.90
3478;DHT22;37937;61.490;23.506;2023-08-31T10:44:24;19.30;99.90
3478;DHT22;37937;61.490;23.506;2023-08-31T10:46:50;19.20;99.90
3478;DHT22;37937;61.490;23.506;2023-08-31T10:49:17;19.10;99.90
3478;DHT22;37937;61.490;23.506;2023-08-31T10:51:44;19.10;99.90
3478;DHT22;37937;61.490;23.506;2023-08-31T10:54:20;19.10;99.90
3478;DHT22;37937;61.490;23.506;2023-08-31T10:57:01;19.10;99.90
3478;DHT22;37937;61.490;23.506;2023-08-31T10:59:41;19.10;99.90
3478;DHT22;37937;61.490;23.506;2023-08-31T11:02:07;19.20;99.90
3478;DHT22;37937;61.490;23.506;2023-08-31T11:04:51;19.10;99.90
3478;DHT22;37937;61.490;23.506;2023-08-31T11:07:18;19.20;99.90
3478;DHT22;37937;61.490;23.506;2023-08-31T11:09:45;19.20;99.90
3478;DHT22;37937;61.490;23.506;2023-08-31T11:12:11;19.20;99.90
3478;DHT22;37937;61.490;23.506;2023-08-31T11:14:37;19.10;99.90
3478;DHT22;37937;61.490;23.506;2023-08-31T11:17:03;19.10;99.90
3478;DHT22;37937;61.490;23.506;2023-08-31T11:19:30;19.00;99.90
3478;DHT22;37937;61.490;23.506;2023-08-31T11:21:56;19.00;99.90
3478;DHT22;37937;61.490;23.506;2023-08-31T11:24:22;18.90;99.90
3478;DHT22;37937;61.490;23.506;2023-08-31T11:26:49;18.90;99.90
3478;DHT22;37937;61.490;23.506;2023-08-31T11:29:15;18.90;99.90
3478;DHT22;37937;61.490;23.506;2023-08-31T11:31:41;18.80;99.90
3478;DHT22;37937;61.490;23.506;2023-08-31T11:34:07;18.90;99.90
3478;DHT22;37937;61.490;23.506;2023-08-31T11:36:32;18.90;99.90
3478;DHT22;37937;61.490;23.506;2023-08-31T11:38:58;18.90;99.90
3478;DHT22;37937;61.490;23.506;2023-08-31T11:41:24;18.90;99.90
3478;DHT22;37937;61.490;23.506;2023-08-31T11:43:51;19.00;99.90
3478;DHT22;37937;61.490;23.506;2023-08-31T11:46:16;19.00;99.90
3478;DHT22;37937;61.490;23.506;2023-08-31T11:48:43;19.10;99.90
3478;DHT22;37937;61.490;23.506;2023-08-31T11:51:09;19.00;99.90
3478;DHT22;37937;61.490;23.506;2023-08-31T11:53:35;19.10;99.90
3478;DHT22;37937;61.490;23.506;2023-08-31T11:56:02;19.10;99.90
3478;DHT22;37937;61.490;23.506;2023-08-31T11:58:27;19.10;99.90
3478;DHT22;37937;61.490;23.506;2023-08-31T12:00:59;19.10;99.90
3478;DHT22;37937;61.490;23.506;2023-08-31T12:03:26;19.20;99.90
3478;DHT22;37937;61.490;23.506;2023-08-31T12:05:52;19.10;99.90
3478;DHT22;37937;61.490;23.506;2023-08-31T12:08:23;19.10;99.90
3478;DHT22;37937;61.490;23.506;2023-08-31T12:10:49;19.10;99.90
3478;DHT22;37937;61.490;23.506;2023-08-31T12:13:15;19.20;99.90
3478;DHT22;37937;61.490;23.506;2023-08-31T12:15:40;19.20;99.90
3478;DHT22;37937;61.490;23.506;2023-08-31T12:18:15;19.20;99.90
3478;DHT22;37937;61.490;23.506;2023-08-31T12:23:09;19.20;99.90
3478;DHT22;37937;61.490;23.506;2023-08-31T12:25:35;19.20;99.90
3478;DHT22;37937;61.490;23.506;2023-08-31T12:28:01;19.30;99.90
3478;DHT22;37937;61.490;23.506;2023-08-31T12:30:27;19.30;99.90
3478;DHT22;37937;61.490;23.506;2023-08-31T12:32:53;19.30;99.90
3478;DHT22;37937;61.490;23.506;2023-08-31T12:35:19;19.30;99.90
3478;DHT22;37937;61.490;23.506;2023-08-31T12:37:45;19.30;99.90
3478;DHT22;37937;61.490;23.506;2023-08-31T12:40:10;19.30;99.90
3478;DHT22;37937;61.490;23.506;2023-08-31T12:42:36;19.40;99.90
3478;DHT22;37937;61.490;23.506;2023-08-31T12:45:02;19.40;99.90
3478;DHT22;37937;61.490;23.506;2023-08-31T12:47:31;19.40;99.90
3478;DHT22;37937;61.490;23.506;2023-08-31T12:49:56;19.40;99.90
3478;DHT22;37937;61.490;23.506;2023-08-31T12:52:23;19.40;99.90
3478;DHT22;37937;61.490;23.506;2023-08-31T12:54:49;19.40;99.90
3478;DHT22;37937;61.490;23.506;2023-08-31T12:57:15;19.50;99.90
3478;DHT22;37937;61.490;23.506;2023-08-31T12:59:40;19.40;99.90
3478;DHT22;37937;61.490;23.506;2023-08-31T13:02:07;19.40;99.90
3478;DHT22;37937;61.490;23.506;2023-08-31T13:04:36;19.40;99.90
3478;DHT22;37937;61.490;23.506;2023-08-31T13:07:01;19.40;99.90
3478;DHT22;37937;61.490;23.506;2023-08-31T13:09:29;19.40;99.90
3478;DHT22;37937;61.490;23.506;2023-08-31T13:11:54;19.50;99.90
3478;DHT22;37937;61.490;23.506;2023-08-31T13:14:20;19.50;99.90
3478;DHT22;37937;61.490;23.506;2023-08-31T13:16:46;19.40;99.90
3478;DHT22;37937;61.490;23.506;2023-08-31T13:19:11;19.50;99.90
3478;DHT22;37937;61.490;23.506;2023-08-31T13:21:37;19.40;99.90
3478;DHT22;37937;61.490;23.506;2023-08-31T13:24:02;19.40;99.90
3478;DHT22;37937;61.490;23.506;2023-08-31T13:26:29;19.40;99.90
3478;DHT22;37937;61.490;23.506;2023-08-31T13:28:54;19.40;99.90
3478;DHT22;37937;61.490;23.506;2023-08-31T13:31:20;19.30;99.90
3478;DHT22;37937;61.490;23.506;2023-08-31T13:33:46;19.40;99.90
3478;DHT22;37937;61.490;23.506;2023-08-31T13:36:12;19.40;99.90
3478;DHT22;37937;61.490;23.506;2023-08-31T13:38:37;19.40;99.90
3478;DHT22;37937;61.490;23.506;2023-08-31T13:41:03;19.40;99.90
3478;DHT22;37937;61.490;23.506;2023-08-31T13:43:29;19.40;99.90
3478;DHT22;37937;61.490;23.506;2023-08-31T13:45:54;19.40;99.90
3478;DHT22;37937;61.490;23.506;2023-08-31T13:48:21;19.40;99.90
3478;DHT22;37937;61.490;23.506;2023-08-31T13:50:48;19.40;99.90
3478;DHT22;37937;61.490;23.506;2023-08-31T13:53:14;19.40;99.90
3478;DHT22;37937;61.490;23.506;2023-08-31T13:55:40;19.40;99.90
3478;DHT22;37937;61.490;23.506;2023-08-31T13:58:06;19.40;99.90
3478;DHT22;37937;61.490;23.506;2023-08-31T14:00:35;19.40;99.90
3478;DHT22;37937;61.490;23.506;2023-08-31T14:03:01;19.40;99.90
3478;DHT22;37937;61.490;23.506;2023-08-31T14:05:30;19.40;99.90
3478;DHT22;37937;61.490;23.506;2023-08-31T14:07:56;19.40;99.90
3478;DHT22;37937;61.490;23.506;2023-08-31T14:10:21;19.40;99.90
3478;DHT22;37937;61.490;23.506;2023-08-31T14:12:47;19.40;99.90
3478;DHT22;37937;61.490;23.506;2023-08-31T14:15:13;19.40;99.90
3478;DHT22;37937;61.490;23.506;2023-08-31T14:17:38;19.40;99.90
3478;DHT22;37937;61.490;23.506;2023-08-31T14:20:04;19.40;99.90
3478;DHT22;37937;61.490;23.506;2023-08-31T14:22:33;19.40;99.90
3478;DHT22;37937;61.490;23.506;2023-08-31T14:24:59;19.40;99.90
3478;DHT22;37937;61.490;23.506;2023-08-31T14:27:28;19.40;99.90
3478;DHT22;37937;61.490;23.506;2023-08-31T14:29:56;19.40;99.90
3478;DHT22;37937;61.490;23.506;2023-08-31T14:32:22;19.30;99.90
3478;DHT22;37937;61.490;23.506;2023-08-31T14:34:48;19.40;99.90
3478;DHT22;37937;61.490;23.506;2023-08-31T14:37:14;19.40;99.90
3478;DHT22;37937;61.490;23.506;2023-08-31T14:39:40;19.40;99.90
3478;DHT22;37937;61.490;23.506;2023-08-31T14:42:05;19.40;99.90
3478;DHT22;37937;61.490;23.506;2023-08-31T14:44:31;19.40;99.90
3478;DHT22;37937;61.490;23.506;2023-08-31T14:46:57;19.40;99.90
3478;DHT22;37937;61.490;23.506;2023-08-31T14:49:22;19.50;99.90
3478;DHT22;37937;61.490;23.506;2023-08-31T14:51:50;19.40;99.90
3478;DHT22;37937;61.490;23.506;2023-08-31T14:54:16;19.40;99.90
3478;DHT22;37937;61.490;23.506;2023-08-31T14:56:41;19.40;99.90
3478;DHT22;37937;61.490;23.506;2023-08-31T14:59:07;19.40;99.90
3478;DHT22;37937;61.490;23.506;2023-08-31T15:01:32;19.40;99.90
3478;DHT22;37937;61.490;23.506;2023-08-31T15:03:58;19.40;99.90
3478;DHT22;37937;61.490;23.506;2023-08-31T15:06:24;19.30;99.90
3478;DHT22;37937;61.490;23.506;2023-08-31T15:08:49;19.30;99.90
3478;DHT22;37937;61.490;23.506;2023-08-31T15:11:15;19.30;99.90
3478;DHT22;37937;61.490;23.506;2023-08-31T15:13:41;19.20;99.90
3478;DHT22;37937;61.490;23.506;2023-08-31T15:16:06;19.20;99.90
3478;DHT22;37937;61.490;23.506;2023-08-31T15:18:32;19.20;99.90
3478;DHT22;37937;61.490;23.506;2023-08-31T15:20:58;19.20;99.90
3478;DHT22;37937;61.490;23.506;2023-08-31T15:23:23;19.10;99.90
3478;DHT22;37937;61.490;23.506;2023-08-31T15:25:49;19.00;99.90
3478;DHT22;37937;61.490;23.506;2023-08-31T15:28:14;19.00;99.90
3478;DHT22;37937;61.490;23.506;2023-08-31T15:30:40;19.00;99.90
3478;DHT22;37937;61.490;23.506;2023-08-31T15:33:06;18.90;99.90